Time;durP1;ratioP1;P1;durP2;ratioP2;P2;SDS_P1;SDS_P2;PMS_P1;PMS_P2;Temp;Humidity;BMP_temperature;BMP_pressure;BME280_temperature;BME280_humidity;BME280_pressure;Samples;Min_cycle;Max_cycle;Signal;HPM_P1;HPM_P2
2022/03/19 00:00:04;;;;;;;31.43;11.77;;;;;;;;;;5031503;28;20529;-69
2022/03/19 00:02:41;;;;;;;28.03;12.63;;;;;;;;;;5030902;28;20434;-69
2022/03/19 00:05:09;;;;;;;26.63;12.43;;;;;;;;;;5044693;28;20504;-69
2022/03/19 00:07:36;;;;;;;33.80;13.10;;;;;;;;;;5042291;28;21029;-69
2022/03/19 00:10:04;;;;;;;33.80;12.87;;;;;;;;;;5057340;28;20563;-69
2022/03/19 00:12:31;;;;;;;28.43;11.20;;;;;;;;;;5045539;28;20442;-69
2022/03/19 00:14:58;;;;;;;29.77;11.70;;;;;;;;;;5053696;28;20448;-69
2022/03/19 00:17:25;;;;;;;28.17;12.53;;;;;;;;;;5039819;28;20445;-69
2022/03/19 00:19:52;;;;;;;30.00;11.80;;;;;;;;;;5050037;28;20441;-69
2022/03/19 00:22:19;;;;;;;31.07;13.07;;;;;;;;;;5065809;28;21080;-69
2022/03/19 00:24:45;;;;;;;26.10;10.63;;;;;;;;;;5041161;28;20449;-69
2022/03/19 00:27:13;;;;;;;28.70;12.67;;;;;;;;;;5043647;28;20793;-70
2022/03/19 00:29:40;;;;;;;24.57;11.60;;;;;;;;;;5031002;28;20546;-69
2022/03/19 00:32:07;;;;;;;28.07;10.60;;;;;;;;;;5029831;28;20493;-69
2022/03/19 00:34:34;;;;;;;26.23;10.27;;;;;;;;;;5063260;28;20540;-69
2022/03/19 00:37:00;;;;;;;24.33;10.87;;;;;;;;;;5035278;28;20443;-70
2022/03/19 00:39:27;;;;;;;26.40;10.67;;;;;;;;;;5047036;28;20451;-69
2022/03/19 00:41:54;;;;;;;23.83;10.60;;;;;;;;;;5048149;28;20487;-70
2022/03/19 00:44:21;;;;;;;23.30;10.63;;;;;;;;;;5045998;28;20437;-69
2022/03/19 00:46:48;;;;;;;27.80;12.27;;;;;;;;;;5029668;28;20449;-69
2022/03/19 00:49:15;;;;;;;29.87;11.40;;;;;;;;;;5045424;28;20819;-69
2022/03/19 00:51:41;;;;;;;30.03;11.30;;;;;;;;;;5056978;28;20971;-69
2022/03/19 00:54:09;;;;;;;28.93;11.80;;;;;;;;;;5049291;28;20513;-69
2022/03/19 00:56:36;;;;;;;24.97;11.00;;;;;;;;;;5064745;28;20468;-69
2022/03/19 00:59:02;;;;;;;26.93;11.17;;;;;;;;;;5032293;28;20461;-69
2022/03/19 01:01:29;;;;;;;29.37;11.00;;;;;;;;;;5064784;28;20437;-69
2022/03/19 01:03:56;;;;;;;30.33;10.90;;;;;;;;;;5049244;28;20446;-69
2022/03/19 01:38:17;;;;;;;23.10;11.37;;;;;;;;;;5028966;28;20428;-69
2022/03/19 01:40:45;;;;;;;25.37;11.30;;;;;;;;;;5026837;28;20839;-69
2022/03/19 01:43:11;;;;;;;28.83;11.83;;;;;;;;;;5035498;28;20449;-69
2022/03/19 01:45:38;;;;;;;23.53;11.30;;;;;;;;;;5063684;28;20441;-69
2022/03/19 01:48:05;;;;;;;24.93;10.60;;;;;;;;;;5048211;28;20438;-69
2022/03/19 01:50:32;;;;;;;22.63;11.03;;;;;;;;;;5047319;28;21183;-69
2022/03/19 01:52:59;;;;;;;22.80;10.10;;;;;;;;;;5063652;28;20445;-69
2022/03/19 01:55:28;;;;;;;29.13;11.40;;;;;;;;;;5063820;28;20512;-69
2022/03/19 01:57:55;;;;;;;23.50;10.77;;;;;;;;;;5059979;28;20447;-69
2022/03/19 02:00:23;;;;;;;25.00;11.27;;;;;;;;;;5028290;28;20815;-69
2022/03/19 02:02:50;;;;;;;23.63;10.60;;;;;;;;;;5035263;28;20463;-69
2022/03/19 02:05:18;;;;;;;26.63;10.93;;;;;;;;;;5029236;28;20448;-69
2022/03/19 02:07:45;;;;;;;26.30;10.93;;;;;;;;;;5048775;28;20991;-69
2022/03/19 02:10:13;;;;;;;21.10;10.43;;;;;;;;;;5045275;28;20465;-69
2022/03/19 02:12:41;;;;;;;26.47;10.00;;;;;;;;;;5044946;28;20445;-69
2022/03/19 02:15:09;;;;;;;23.93;10.87;;;;;;;;;;5057265;28;20437;-69
2022/03/19 02:17:36;;;;;;;22.00;11.17;;;;;;;;;;5028763;28;20878;-69
2022/03/19 02:20:03;;;;;;;26.53;11.30;;;;;;;;;;5041437;28;20450;-69
2022/03/19 02:22:30;;;;;;;27.03;11.97;;;;;;;;;;5063936;28;20429;-69
2022/03/19 02:27:42;;;;;;;25.70;12.10;;;;;;;;;;5027792;28;20495;-69
2022/03/19 02:30:10;;;;;;;24.57;11.43;;;;;;;;;;5043911;28;20500;-69
2022/03/19 02:32:40;;;;;;;35.87;14.53;;;;;;;;;;5028255;28;21158;-69
2022/03/19 02:35:07;;;;;;;39.07;16.13;;;;;;;;;;5030624;28;21125;-69
2022/03/19 02:37:38;;;;;;;37.50;16.17;;;;;;;;;;5048018;28;20433;-69
2022/03/19 02:40:07;;;;;;;42.33;19.53;;;;;;;;;;5051089;28;20449;-69
2022/03/19 02:42:38;;;;;;;63.40;23.83;;;;;;;;;;5028274;28;20446;-69
2022/03/19 02:45:06;;;;;;;49.77;19.43;;;;;;;;;;5043275;28;20460;-69
2022/03/19 02:47:33;;;;;;;40.63;18.10;;;;;;;;;;5043440;28;20429;-69
2022/03/19 02:49:59;;;;;;;37.33;17.57;;;;;;;;;;5036733;28;20481;-69
2022/03/19 02:52:26;;;;;;;35.40;14.33;;;;;;;;;;5030308;28;20448;-69
2022/03/19 02:54:53;;;;;;;33.20;14.40;;;;;;;;;;5032817;28;20438;-69
2022/03/19 02:57:20;;;;;;;32.83;14.93;;;;;;;;;;5031757;28;21255;-69
2022/03/19 02:59:46;;;;;;;37.80;16.47;;;;;;;;;;5031990;28;20972;-69
2022/03/19 03:02:13;;;;;;;34.73;15.47;;;;;;;;;;5031829;28;20461;-69
2022/03/19 03:04:41;;;;;;;46.90;22.77;;;;;;;;;;5031801;28;20500;-69
2022/03/19 03:07:07;;;;;;;58.13;23.50;;;;;;;;;;5034552;28;20495;-69
2022/03/19 03:09:34;;;;;;;52.13;21.60;;;;;;;;;;5035247;28;20471;-69
2022/03/19 03:12:02;;;;;;;86.57;30.63;;;;;;;;;;5060319;28;20536;-69
2022/03/19 03:14:29;;;;;;;99.80;33.13;;;;;;;;;;5036547;28;20447;-69
2022/03/19 03:16:58;;;;;;;81.23;29.10;;;;;;;;;;5038592;28;20453;-69
2022/03/19 03:19:24;;;;;;;75.27;25.33;;;;;;;;;;5046812;28;20531;-69
2022/03/19 03:21:51;;;;;;;101.13;28.23;;;;;;;;;;5030670;28;20477;-69
2022/03/19 03:24:18;;;;;;;68.90;25.67;;;;;;;;;;5034581;28;20767;-69
2022/03/19 03:26:45;;;;;;;78.57;27.17;;;;;;;;;;5050881;28;20448;-69
2022/03/19 03:29:14;;;;;;;71.00;22.53;;;;;;;;;;5044287;28;20460;-69
2022/03/19 03:31:41;;;;;;;60.70;20.33;;;;;;;;;;5040425;28;20443;-69
2022/03/19 03:34:07;;;;;;;49.30;17.23;;;;;;;;;;5051159;28;20771;-69
2022/03/19 03:36:36;;;;;;;42.07;16.30;;;;;;;;;;5066015;28;20451;-69
2022/03/19 03:39:02;;;;;;;44.37;15.33;;;;;;;;;;5050556;28;20440;-69
2022/03/19 03:41:30;;;;;;;61.57;17.37;;;;;;;;;;5045410;28;20818;-69
2022/03/19 03:43:57;;;;;;;43.90;15.33;;;;;;;;;;5049947;28;20449;-68
2022/03/19 03:46:24;;;;;;;45.80;16.37;;;;;;;;;;5040778;28;20450;-69
2022/03/19 03:48:50;;;;;;;47.30;17.20;;;;;;;;;;5046275;28;20832;-69
2022/03/19 03:51:17;;;;;;;40.37;15.03;;;;;;;;;;5050793;28;20499;-69
2022/03/19 03:53:45;;;;;;;38.00;14.97;;;;;;;;;;5047804;28;20742;-69
2022/03/19 03:56:29;;;;;;;39.37;14.17;;;;;;;;;;5030088;28;21168;-69
2022/03/19 03:58:56;;;;;;;33.67;15.10;;;;;;;;;;5030189;28;20764;-69
2022/03/19 04:01:23;;;;;;;31.47;13.70;;;;;;;;;;5038836;28;20431;-69
2022/03/19 04:03:50;;;;;;;35.50;14.00;;;;;;;;;;5041393;28;20450;-69
2022/03/19 04:06:17;;;;;;;29.33;13.33;;;;;;;;;;5030846;28;20458;-69
2022/03/19 04:08:44;;;;;;;32.60;13.47;;;;;;;;;;5046009;28;20532;-69
2022/03/19 04:11:11;;;;;;;31.67;13.10;;;;;;;;;;5031657;28;20477;-69
2022/03/19 04:13:37;;;;;;;42.80;14.37;;;;;;;;;;5038520;28;20796;-69
2022/03/19 04:16:04;;;;;;;26.57;12.67;;;;;;;;;;5048492;28;20527;-69
2022/03/19 04:18:31;;;;;;;40.50;14.00;;;;;;;;;;5045331;28;20465;-69
2022/03/19 04:20:58;;;;;;;34.33;13.83;;;;;;;;;;5033752;28;20446;-68
2022/03/19 04:23:42;;;;;;;29.37;13.60;;;;;;;;;;5030227;28;20468;-68
2022/03/19 04:26:08;;;;;;;33.83;13.67;;;;;;;;;;5049176;28;20806;-69
2022/03/19 04:28:35;;;;;;;36.67;14.17;;;;;;;;;;5030392;28;20453;-69
2022/03/19 04:31:02;;;;;;;36.37;14.47;;;;;;;;;;5029746;28;20470;-70
2022/03/19 04:33:29;;;;;;;34.27;14.17;;;;;;;;;;5031518;28;20438;-69
2022/03/19 04:38:42;;;;;;;36.53;13.40;;;;;;;;;;5031923;28;20453;-69
2022/03/19 04:41:09;;;;;;;31.27;13.40;;;;;;;;;;5049687;28;21013;-68
2022/03/19 04:43:36;;;;;;;35.37;12.37;;;;;;;;;;5033358;28;20453;-69
2022/03/19 04:46:03;;;;;;;36.83;13.47;;;;;;;;;;5047017;28;20434;-69
2022/03/19 04:48:30;;;;;;;35.60;12.70;;;;;;;;;;5049483;28;20448;-69
2022/03/19 04:50:57;;;;;;;29.80;12.43;;;;;;;;;;5049768;28;20564;-69
2022/03/19 04:53:24;;;;;;;33.10;12.57;;;;;;;;;;5049715;28;20479;-69
2022/03/19 04:55:51;;;;;;;30.53;12.80;;;;;;;;;;5047533;28;20430;-70
2022/03/19 04:58:18;;;;;;;29.67;12.37;;;;;;;;;;5045497;28;20451;-67
2022/03/19 05:00:45;;;;;;;37.63;12.73;;;;;;;;;;5038863;28;20545;-68
2022/03/19 05:03:13;;;;;;;34.70;13.27;;;;;;;;;;5047882;28;20438;-69
2022/03/19 05:05:40;;;;;;;33.60;12.57;;;;;;;;;;5044111;28;20558;-69
2022/03/19 05:08:07;;;;;;;38.80;14.67;;;;;;;;;;5041387;28;20437;-68
2022/03/19 05:13:20;;;;;;;35.90;12.30;;;;;;;;;;5030199;28;20449;-69
2022/03/19 05:15:47;;;;;;;27.17;11.70;;;;;;;;;;5029953;28;20957;-68
2022/03/19 05:18:14;;;;;;;30.67;11.37;;;;;;;;;;5038212;28;20491;-69
2022/03/19 05:20:41;;;;;;;29.07;11.93;;;;;;;;;;5047706;28;20460;-69
2022/03/19 05:23:07;;;;;;;31.27;11.73;;;;;;;;;;5033288;28;20446;-69
2022/03/19 05:25:34;;;;;;;31.57;11.43;;;;;;;;;;5030397;28;20438;-69
2022/03/19 05:28:01;;;;;;;33.00;12.00;;;;;;;;;;5049251;28;20465;-68
2022/03/19 05:30:48;;;;;;;31.13;11.33;;;;;;;;;;5036192;28;20492;-69
2022/03/19 05:33:15;;;;;;;29.80;11.40;;;;;;;;;;5028163;28;20533;-69
2022/03/19 05:35:42;;;;;;;39.60;13.30;;;;;;;;;;5036788;28;20504;-69
2022/03/19 05:38:08;;;;;;;28.97;11.70;;;;;;;;;;5028265;28;20442;-69
2022/03/19 05:40:53;;;;;;;27.27;11.23;;;;;;;;;;5029069;28;20474;-68
2022/03/19 05:43:19;;;;;;;28.30;11.40;;;;;;;;;;5029335;28;21177;-69
2022/03/19 05:45:46;;;;;;;32.60;12.50;;;;;;;;;;5043263;28;21126;-69
2022/03/19 05:48:13;;;;;;;32.80;12.57;;;;;;;;;;5048621;28;20441;-68
2022/03/19 05:50:40;;;;;;;31.80;12.73;;;;;;;;;;5047696;28;20487;-69
2022/03/19 05:53:06;;;;;;;32.87;13.17;;;;;;;;;;5048100;28;20793;-69
2022/03/19 05:55:33;;;;;;;36.70;14.00;;;;;;;;;;5047289;28;20855;-69
2022/03/19 05:58:00;;;;;;;35.30;14.20;;;;;;;;;;5026877;28;21332;-69
2022/03/19 06:00:26;;;;;;;34.30;14.13;;;;;;;;;;5039648;28;20468;-69
2022/03/19 06:02:53;;;;;;;35.70;13.20;;;;;;;;;;5049079;28;20431;-69
2022/03/19 06:05:21;;;;;;;39.23;13.90;;;;;;;;;;5045875;28;20556;-69
2022/03/19 06:07:48;;;;;;;30.57;13.13;;;;;;;;;;5021265;28;20438;-69
2022/03/19 06:10:15;;;;;;;30.53;12.77;;;;;;;;;;5040432;28;20463;-69
2022/03/19 06:12:43;;;;;;;30.43;13.37;;;;;;;;;;5046274;28;20448;-69
2022/03/19 06:15:10;;;;;;;30.27;12.23;;;;;;;;;;5045898;28;20472;-69
2022/03/19 06:17:36;;;;;;;31.90;13.63;;;;;;;;;;5030278;28;20442;-69
2022/03/19 06:20:03;;;;;;;41.23;13.33;;;;;;;;;;5046166;28;20646;-69
2022/03/19 06:22:30;;;;;;;29.70;14.03;;;;;;;;;;5048352;28;20445;-68
2022/03/19 06:24:57;;;;;;;30.17;12.43;;;;;;;;;;5043256;28;20940;-69
2022/03/19 06:27:24;;;;;;;28.30;12.20;;;;;;;;;;5047224;28;20535;-69
2022/03/19 06:29:50;;;;;;;32.30;12.50;;;;;;;;;;5054930;28;20456;-69
2022/03/19 06:32:20;;;;;;;31.07;13.00;;;;;;;;;;5054905;28;20435;-69
2022/03/19 06:34:48;;;;;;;29.47;13.30;;;;;;;;;;5052401;28;20452;-68
2022/03/19 06:37:19;;;;;;;31.77;13.20;;;;;;;;;;5042988;28;20442;-69
2022/03/19 06:39:50;;;;;;;27.53;12.13;;;;;;;;;;5045219;28;20452;-69
2022/03/19 06:42:17;;;;;;;27.60;11.87;;;;;;;;;;5035331;28;20484;-69
2022/03/19 06:44:44;;;;;;;34.67;12.13;;;;;;;;;;5051454;28;20441;-68
2022/03/19 06:47:10;;;;;;;29.07;12.40;;;;;;;;;;5054309;28;20455;-69
2022/03/19 06:49:39;;;;;;;28.80;13.27;;;;;;;;;;5052845;28;20439;-68
2022/03/19 06:52:06;;;;;;;26.70;12.43;;;;;;;;;;5054765;28;20853;-69
2022/03/19 06:54:33;;;;;;;34.30;12.70;;;;;;;;;;5051479;28;20470;-68
2022/03/19 06:57:00;;;;;;;33.37;12.80;;;;;;;;;;5053932;28;21519;-68
2022/03/19 06:59:26;;;;;;;29.27;12.93;;;;;;;;;;5054312;28;20464;-69
2022/03/19 07:01:53;;;;;;;30.27;12.40;;;;;;;;;;5054506;28;20447;-68
2022/03/19 07:04:21;;;;;;;31.67;12.27;;;;;;;;;;5053293;28;20487;-69
2022/03/19 07:06:48;;;;;;;31.23;12.50;;;;;;;;;;5052368;28;20444;-69
2022/03/19 07:09:28;;;;;;;28.90;12.30;;;;;;;;;;5037530;28;20941;-69
2022/03/19 07:11:54;;;;;;;29.43;11.97;;;;;;;;;;5043562;28;20976;-68
2022/03/19 07:14:22;;;;;;;36.57;12.73;;;;;;;;;;5045759;28;20445;-69
2022/03/19 07:16:49;;;;;;;24.57;11.30;;;;;;;;;;5052490;28;20948;-69
2022/03/19 07:19:16;;;;;;;26.50;10.73;;;;;;;;;;5038733;28;20955;-69
2022/03/19 07:21:43;;;;;;;27.57;10.40;;;;;;;;;;5045502;28;20853;-68
2022/03/19 07:24:10;;;;;;;23.00;9.80;;;;;;;;;;5034791;28;20447;-68
2022/03/19 07:26:36;;;;;;;29.73;10.57;;;;;;;;;;5027020;28;20516;-67
2022/03/19 07:29:05;;;;;;;26.00;10.67;;;;;;;;;;5042928;28;20449;-67
2022/03/19 07:31:31;;;;;;;31.30;11.17;;;;;;;;;;5044045;28;20558;-68
2022/03/19 07:33:59;;;;;;;29.13;10.67;;;;;;;;;;5044038;28;20490;-68
2022/03/19 07:36:26;;;;;;;37.53;11.03;;;;;;;;;;5042188;28;20988;-67
2022/03/19 07:38:53;;;;;;;33.07;11.70;;;;;;;;;;5023256;28;21236;-67
2022/03/19 07:41:48;;;;;;;40.77;12.83;;;;;;;;;;5040070;28;20460;-68
2022/03/19 07:44:16;;;;;;;46.37;12.43;;;;;;;;;;5041140;28;20510;-70
2022/03/19 07:47:00;;;;;;;40.60;12.17;;;;;;;;;;5040356;28;20440;-68
2022/03/19 07:49:27;;;;;;;26.17;9.97;;;;;;;;;;5040131;28;20442;-67
2022/03/19 07:51:56;;;;;;;35.60;12.10;;;;;;;;;;5030032;28;20518;-70
2022/03/19 07:54:27;;;;;;;33.07;11.60;;;;;;;;;;5041882;28;20455;-69
2022/03/19 07:56:54;;;;;;;33.77;11.47;;;;;;;;;;5041106;28;20640;-70
2022/03/19 07:59:21;;;;;;;29.63;11.23;;;;;;;;;;5040959;28;20570;-69
2022/03/19 08:01:49;;;;;;;25.30;10.30;;;;;;;;;;5040498;28;20446;-70
2022/03/19 08:04:16;;;;;;;25.23;9.50;;;;;;;;;;5042752;28;20531;-70
2022/03/19 08:06:43;;;;;;;15.23;8.03;;;;;;;;;;5034667;28;20446;-67
2022/03/19 08:09:10;;;;;;;17.20;8.03;;;;;;;;;;5030684;28;20442;-68
2022/03/19 08:11:36;;;;;;;20.30;8.00;;;;;;;;;;5031061;28;20475;-68
2022/03/19 08:14:04;;;;;;;11.47;6.23;;;;;;;;;;5034291;28;20775;-67
2022/03/19 08:16:30;;;;;;;15.43;6.90;;;;;;;;;;5032510;28;20531;-70
2022/03/19 08:18:57;;;;;;;14.20;6.13;;;;;;;;;;5045828;28;20528;-68
2022/03/19 08:21:24;;;;;;;9.07;5.40;;;;;;;;;;5042733;28;20449;-67
2022/03/19 08:23:52;;;;;;;12.53;5.73;;;;;;;;;;5030929;28;20444;-67
2022/03/19 08:26:19;;;;;;;13.57;6.07;;;;;;;;;;5048104;28;20446;-67
2022/03/19 08:28:48;;;;;;;12.97;6.87;;;;;;;;;;5047480;28;20980;-68
2022/03/19 08:31:15;;;;;;;11.10;5.93;;;;;;;;;;5032514;28;20488;-67
2022/03/19 08:33:59;;;;;;;10.87;5.90;;;;;;;;;;5030185;28;20539;-68
2022/03/19 08:36:26;;;;;;;10.43;5.47;;;;;;;;;;5030042;28;20425;-68
2022/03/19 08:41:38;;;;;;;12.30;6.10;;;;;;;;;;5029992;28;20484;-67
2022/03/19 08:44:05;;;;;;;11.83;5.97;;;;;;;;;;5030354;28;20552;-68
2022/03/19 08:46:32;;;;;;;11.93;5.53;;;;;;;;;;5041466;28;20500;-68
2022/03/19 08:48:59;;;;;;;13.07;5.20;;;;;;;;;;5029977;28;21367;-68
2022/03/19 08:51:41;;;;;;;8.10;4.70;;;;;;;;;;5040700;28;20476;-68
2022/03/19 08:54:09;;;;;;;7.97;5.00;;;;;;;;;;5048994;28;20475;-67
2022/03/19 08:56:36;;;;;;;10.17;5.67;;;;;;;;;;5040475;28;20940;-69
2022/03/19 08:59:03;;;;;;;9.03;5.10;;;;;;;;;;5043228;28;20449;-69
2022/03/19 09:01:30;;;;;;;9.87;5.07;;;;;;;;;;5026345;28;20969;-69
2022/03/19 09:03:57;;;;;;;12.53;5.60;;;;;;;;;;5042858;28;21041;-70
2022/03/19 09:06:25;;;;;;;10.30;4.97;;;;;;;;;;5026010;28;21190;-69
2022/03/19 09:08:51;;;;;;;11.13;5.80;;;;;;;;;;5041725;28;20444;-68
2022/03/19 09:11:19;;;;;;;9.23;6.07;;;;;;;;;;5043986;28;20457;-68
2022/03/19 09:13:46;;;;;;;11.73;6.17;;;;;;;;;;5042109;28;20452;-68
2022/03/19 09:16:13;;;;;;;11.90;5.80;;;;;;;;;;5042341;28;21180;-69
2022/03/19 09:18:40;;;;;;;12.37;7.07;;;;;;;;;;5038520;28;20537;-68
2022/03/19 09:21:06;;;;;;;9.00;5.67;;;;;;;;;;5041907;28;20443;-68
2022/03/19 09:23:33;;;;;;;9.10;5.60;;;;;;;;;;5041618;28;21209;-69
2022/03/19 09:26:00;;;;;;;7.87;5.27;;;;;;;;;;5042058;28;21063;-68
2022/03/19 09:28:27;;;;;;;9.00;6.43;;;;;;;;;;5039047;28;20956;-70
2022/03/19 09:30:54;;;;;;;10.73;5.60;;;;;;;;;;5043162;28;20521;-68
2022/03/19 09:33:21;;;;;;;9.57;5.57;;;;;;;;;;5043241;28;20441;-67
2022/03/19 09:35:48;;;;;;;7.70;5.27;;;;;;;;;;5041953;28;20532;-67
2022/03/19 09:38:15;;;;;;;7.03;4.73;;;;;;;;;;5042587;28;20516;-66
2022/03/19 09:40:42;;;;;;;9.97;5.73;;;;;;;;;;5038192;28;21647;-68
2022/03/19 09:43:09;;;;;;;8.07;5.13;;;;;;;;;;5040500;28;20441;-66
2022/03/19 09:45:38;;;;;;;11.77;5.53;;;;;;;;;;5024713;28;20445;-64
2022/03/19 09:48:09;;;;;;;7.33;5.30;;;;;;;;;;5040140;28;21152;-65
2022/03/19 09:50:41;;;;;;;8.17;4.90;;;;;;;;;;5042503;28;20469;-69
2022/03/19 09:53:08;;;;;;;9.27;5.47;;;;;;;;;;5041442;28;20450;-68
2022/03/19 09:55:37;;;;;;;7.83;5.00;;;;;;;;;;5043785;28;20518;-67
2022/03/19 09:58:04;;;;;;;9.97;5.37;;;;;;;;;;5042733;28;20506;-66
2022/03/19 10:00:31;;;;;;;7.83;5.27;;;;;;;;;;5040949;28;20440;-67
2022/03/19 10:03:04;;;;;;;9.90;5.70;;;;;;;;;;5042571;28;20536;-69
2022/03/19 10:08:36;;;;;;;10.70;6.97;;;;;;;;;;5026766;28;21104;-67
2022/03/19 10:11:21;;;;;;;13.80;6.63;;;;;;;;;;5041721;28;20468;-67
2022/03/19 10:13:49;;;;;;;12.67;7.27;;;;;;;;;;5040792;28;20445;-67
2022/03/19 10:16:19;;;;;;;11.93;6.63;;;;;;;;;;5039347;28;20455;-67
2022/03/19 10:18:57;;;;;;;11.20;5.83;;;;;;;;;;5038534;28;20449;-67
2022/03/19 10:21:24;;;;;;;10.37;5.80;;;;;;;;;;5041390;28;20460;-68
2022/03/19 10:23:51;;;;;;;10.53;5.97;;;;;;;;;;5039724;28;20453;-68
2022/03/19 10:26:28;;;;;;;10.87;5.33;;;;;;;;;;5041618;28;20483;-69
2022/03/19 10:29:00;;;;;;;7.30;5.23;;;;;;;;;;5041240;28;20448;-68
2022/03/19 10:31:31;;;;;;;11.50;5.80;;;;;;;;;;5041382;28;20993;-68
2022/03/19 10:33:58;;;;;;;10.30;5.87;;;;;;;;;;5041722;28;20491;-69
2022/03/19 10:36:43;;;;;;;10.13;5.50;;;;;;;;;;5040719;28;20480;-68
2022/03/19 10:39:20;;;;;;;9.60;5.00;;;;;;;;;;5040503;28;20439;-68
2022/03/19 10:41:47;;;;;;;7.90;4.60;;;;;;;;;;5041735;28;20481;-67
2022/03/19 10:44:16;;;;;;;8.63;5.13;;;;;;;;;;5041223;28;20456;-66
2022/03/19 10:46:46;;;;;;;8.77;4.13;;;;;;;;;;5042795;28;20707;-65
2022/03/19 10:49:13;;;;;;;7.67;4.27;;;;;;;;;;5040477;28;20445;-65
2022/03/19 10:51:42;;;;;;;8.20;4.60;;;;;;;;;;5040517;28;20508;-66
2022/03/19 10:54:09;;;;;;;9.17;4.77;;;;;;;;;;5041547;28;20441;-66
2022/03/19 10:56:35;;;;;;;7.80;4.60;;;;;;;;;;5040393;28;20436;-67
2022/03/19 10:59:02;;;;;;;9.23;5.00;;;;;;;;;;5037066;28;20991;-66
2022/03/19 11:01:29;;;;;;;7.50;5.23;;;;;;;;;;5040639;28;20430;-66
2022/03/19 11:03:56;;;;;;;8.83;4.73;;;;;;;;;;5023322;28;21006;-67
2022/03/19 11:06:23;;;;;;;8.63;5.33;;;;;;;;;;5041158;28;20516;-66
2022/03/19 11:08:51;;;;;;;8.20;4.40;;;;;;;;;;5040935;28;20425;-67
2022/03/19 11:11:18;;;;;;;8.53;4.53;;;;;;;;;;5042117;28;20463;-66
2022/03/19 11:13:46;;;;;;;8.00;4.30;;;;;;;;;;5042625;28;20975;-66
2022/03/19 11:16:13;;;;;;;9.00;4.90;;;;;;;;;;5045441;28;20470;-66
2022/03/19 11:18:40;;;;;;;6.40;4.43;;;;;;;;;;5042557;28;20288;-70
2022/03/19 11:21:09;;;;;;;8.30;5.80;;;;;;;;;;5043427;28;20266;-71
2022/03/19 11:23:45;;;;;;;9.60;5.20;;;;;;;;;;5048431;28;20270;-71
2022/03/19 11:26:13;;;;;;;10.07;5.17;;;;;;;;;;5036331;28;20425;-71
2022/03/19 11:28:40;;;;;;;8.30;5.13;;;;;;;;;;5022460;28;20230;-71
2022/03/19 11:31:10;;;;;;;9.03;5.23;;;;;;;;;;5035621;28;20215;-72
2022/03/19 11:33:38;;;;;;;8.50;5.13;;;;;;;;;;5031695;28;20191;-71
2022/03/19 11:36:05;;;;;;;10.63;5.63;;;;;;;;;;5030387;28;20199;-71
2022/03/19 11:38:32;;;;;;;10.83;5.83;;;;;;;;;;5031492;28;20188;-71
2022/03/19 11:41:00;;;;;;;8.70;5.63;;;;;;;;;;5030366;28;20238;-72
2022/03/19 11:43:28;;;;;;;11.30;5.73;;;;;;;;;;5030918;28;20198;-71
2022/03/19 11:46:00;;;;;;;9.13;5.60;;;;;;;;;;5046614;28;20293;-71
2022/03/19 11:48:48;;;;;;;11.00;5.97;;;;;;;;;;5035343;28;20678;-70
2022/03/19 11:51:34;;;;;;;13.53;5.97;;;;;;;;;;5041823;28;20222;-62
2022/03/19 11:54:19;;;;;;;12.17;5.77;;;;;;;;;;5031020;28;20175;-62
2022/03/19 11:56:51;;;;;;;11.53;5.93;;;;;;;;;;5030599;28;20266;-62
2022/03/19 11:59:24;;;;;;;9.77;5.90;;;;;;;;;;5040357;28;21019;-62
2022/03/19 12:01:58;;;;;;;9.80;5.77;;;;;;;;;;5042740;28;20241;-61
2022/03/19 12:04:44;;;;;;;14.53;8.07;;;;;;;;;;5043823;28;20207;-62
2022/03/19 12:07:12;;;;;;;9.03;5.67;;;;;;;;;;5034904;28;20190;-62
2022/03/19 12:09:38;;;;;;;8.83;5.80;;;;;;;;;;5050730;28;20869;-61
2022/03/19 12:12:15;;;;;;;12.87;6.43;;;;;;;;;;5049789;28;20301;-61
2022/03/19 12:14:43;;;;;;;13.13;8.43;;;;;;;;;;5037132;28;20187;-60
2022/03/19 12:17:16;;;;;;;10.57;5.27;;;;;;;;;;5049044;28;20440;-60
2022/03/19 12:19:55;;;;;;;10.10;5.73;;;;;;;;;;5049141;28;20244;-60
2022/03/19 12:22:28;;;;;;;10.33;5.50;;;;;;;;;;5057662;28;20191;-60
2022/03/19 12:25:07;;;;;;;10.97;6.00;;;;;;;;;;5064890;28;20193;-60
2022/03/19 12:27:33;;;;;;;12.57;6.00;;;;;;;;;;5067049;28;20604;-61
2022/03/19 12:30:00;;;;;;;8.93;5.00;;;;;;;;;;5045512;28;20191;-62
2022/03/19 12:32:28;;;;;;;8.83;5.00;;;;;;;;;;5036368;28;20289;-61
2022/03/19 12:34:59;;;;;;;9.73;5.17;;;;;;;;;;5030317;28;20600;-62
2022/03/19 12:37:26;;;;;;;8.73;4.90;;;;;;;;;;5029810;28;20203;-62
2022/03/19 12:39:56;;;;;;;7.53;4.20;;;;;;;;;;5040562;28;20190;-60
2022/03/19 12:42:33;;;;;;;6.70;5.00;;;;;;;;;;5029610;28;20219;-62
2022/03/19 12:45:03;;;;;;;6.83;4.43;;;;;;;;;;5043838;28;20190;-62
2022/03/19 12:47:31;;;;;;;7.20;4.27;;;;;;;;;;5044509;28;20269;-65
2022/03/19 12:49:58;;;;;;;8.23;4.60;;;;;;;;;;5035173;28;20195;-64
2022/03/19 12:52:26;;;;;;;6.87;4.40;;;;;;;;;;5035746;28;20218;-66
2022/03/19 12:54:55;;;;;;;7.20;4.10;;;;;;;;;;5042031;28;20266;-68
2022/03/19 12:57:25;;;;;;;7.80;4.33;;;;;;;;;;5043543;28;20191;-71
2022/03/19 12:59:56;;;;;;;5.40;3.93;;;;;;;;;;5043094;28;20202;-72
2022/03/19 13:02:24;;;;;;;8.43;3.93;;;;;;;;;;5043846;28;20194;-71
2022/03/19 13:04:52;;;;;;;6.93;3.97;;;;;;;;;;5041862;28;20191;-72
2022/03/19 13:07:22;;;;;;;7.17;4.23;;;;;;;;;;5047241;28;20179;-74
2022/03/19 13:09:50;;;;;;;8.00;3.90;;;;;;;;;;5049999;28;20249;-74
2022/03/19 13:12:18;;;;;;;6.27;3.63;;;;;;;;;;5033295;28;20575;-74
2022/03/19 13:14:49;;;;;;;6.60;3.30;;;;;;;;;;5057262;28;20190;-74
2022/03/19 13:17:17;;;;;;;5.63;3.20;;;;;;;;;;5030536;28;20652;-74
2022/03/19 13:19:44;;;;;;;7.47;3.27;;;;;;;;;;5029949;28;20184;-74
2022/03/19 13:22:16;;;;;;;5.67;3.40;;;;;;;;;;5029109;28;20207;-75
2022/03/19 13:24:45;;;;;;;6.90;3.43;;;;;;;;;;5045017;28;20195;-73
2022/03/19 13:27:14;;;;;;;6.83;3.50;;;;;;;;;;5028727;28;20205;-74
2022/03/19 13:29:41;;;;;;;4.23;2.80;;;;;;;;;;5030024;28;20286;-74
2022/03/19 13:32:09;;;;;;;9.13;3.63;;;;;;;;;;5028341;28;20695;-74
2022/03/19 13:34:37;;;;;;;9.37;3.40;;;;;;;;;;5029685;28;20191;-73
2022/03/19 13:37:05;;;;;;;4.73;2.80;;;;;;;;;;5031976;28;20186;-74
2022/03/19 13:39:36;;;;;;;5.17;3.20;;;;;;;;;;5040549;28;20186;-76
2022/03/19 13:42:06;;;;;;;7.17;3.63;;;;;;;;;;5040852;28;20221;-74
2022/03/19 13:44:35;;;;;;;5.87;2.77;;;;;;;;;;5028997;28;20195;-74
2022/03/19 13:47:07;;;;;;;8.10;3.03;;;;;;;;;;5040609;28;20273;-76
2022/03/19 13:49:38;;;;;;;4.80;2.80;;;;;;;;;;5033853;28;20215;-70
2022/03/19 13:52:06;;;;;;;8.43;3.20;;;;;;;;;;5041358;28;20221;-70
2022/03/19 13:54:45;;;;;;;5.83;2.70;;;;;;;;;;5043955;28;20274;-69
2022/03/19 13:57:13;;;;;;;4.53;2.10;;;;;;;;;;5039572;28;20654;-71
2022/03/19 13:59:42;;;;;;;4.70;3.30;;;;;;;;;;5024550;28;20309;-73
2022/03/19 14:02:09;;;;;;;5.67;2.83;;;;;;;;;;5042106;28;20249;-72
2022/03/19 14:04:37;;;;;;;6.93;3.27;;;;;;;;;;5043973;28;20179;-72
2022/03/19 14:07:04;;;;;;;8.20;3.97;;;;;;;;;;5047644;28;20237;-72
2022/03/19 14:09:31;;;;;;;6.57;3.67;;;;;;;;;;5047250;28;20245;-73
2022/03/19 14:12:30;;;;;;;8.50;5.00;;;;;;;;;;5048170;28;20203;-72
2022/03/19 14:14:58;;;;;;;8.87;4.57;;;;;;;;;;5036410;28;20709;-72
2022/03/19 14:17:46;;;;;;;8.60;4.77;;;;;;;;;;5028450;28;20261;-72
2022/03/19 14:20:14;;;;;;;13.67;7.50;;;;;;;;;;5045075;28;20192;-72
2022/03/19 14:22:40;;;;;;;8.40;5.23;;;;;;;;;;5028889;28;20245;-72
2022/03/19 14:25:10;;;;;;;7.40;4.00;;;;;;;;;;5040746;28;20195;-72
2022/03/19 14:27:37;;;;;;;7.53;4.03;;;;;;;;;;5029281;28;20184;-72
2022/03/19 14:30:19;;;;;;;6.23;4.03;;;;;;;;;;5042025;28;20238;-73
2022/03/19 14:32:47;;;;;;;5.33;2.80;;;;;;;;;;5062909;28;20276;-72
2022/03/19 14:35:51;;;;;;;5.90;2.80;;;;;;;;;;5064255;28;20662;-72
2022/03/19 14:38:21;;;;;;;7.70;3.20;;;;;;;;;;5006799;28;20200;-72
2022/03/19 14:40:48;;;;;;;6.77;3.97;;;;;;;;;;5011470;28;20242;-72
2022/03/19 14:43:15;;;;;;;7.60;3.83;;;;;;;;;;5032140;28;20599;-72
2022/03/19 14:45:43;;;;;;;5.20;2.40;;;;;;;;;;5039006;28;20191;-72
2022/03/19 14:48:10;;;;;;;6.27;4.30;;;;;;;;;;5044566;28;20182;-73
2022/03/19 14:50:43;;;;;;;15.90;8.00;;;;;;;;;;5035066;28;20203;-73
2022/03/19 14:53:11;;;;;;;10.63;5.20;;;;;;;;;;5038622;28;20218;-73
2022/03/19 14:55:38;;;;;;;11.60;4.63;;;;;;;;;;5052812;28;20190;-73
2022/03/19 14:58:06;;;;;;;8.33;3.73;;;;;;;;;;5062715;28;20202;-73
2022/03/19 15:00:50;;;;;;;8.37;3.23;;;;;;;;;;5032371;28;20176;-72
2022/03/19 15:03:18;;;;;;;4.27;3.17;;;;;;;;;;5037884;28;20200;-68
2022/03/19 15:05:46;;;;;;;7.37;4.00;;;;;;;;;;5046077;28;20192;-69
2022/03/19 15:08:13;;;;;;;5.83;3.40;;;;;;;;;;5051160;28;20610;-69
2022/03/19 15:10:41;;;;;;;10.70;5.23;;;;;;;;;;5031104;28;20275;-69
2022/03/19 15:13:12;;;;;;;4.10;2.57;;;;;;;;;;5031516;28;20227;-70
2022/03/19 15:15:39;;;;;;;12.87;5.20;;;;;;;;;;5057534;28;20191;-69
2022/03/19 15:18:07;;;;;;;10.10;5.00;;;;;;;;;;5036198;28;20187;-70
2022/03/19 15:20:34;;;;;;;8.07;3.87;;;;;;;;;;5040537;28;20280;-69
2022/03/19 15:23:01;;;;;;;6.67;3.80;;;;;;;;;;5049721;28;20233;-69